createdAt,value
2018-02-08T00:00:37.535Z,1.4
2018-02-08T00:01:40.065Z,1.3
2018-02-08T00:02:42.581Z,1.4
2018-02-08T00:03:45.112Z,1.2
2018-02-08T00:04:47.683Z,1.2
2018-02-08T00:05:50.193Z,1.1
2018-02-08T00:06:52.685Z,1.2
2018-02-08T00:07:55.162Z,1.1
2018-02-08T00:08:57.646Z,1.1
2018-02-08T00:10:00.179Z,1.1
2018-02-08T00:11:02.741Z,1
2018-02-08T00:12:05.296Z,1
2018-02-08T00:13:07.789Z,1
2018-02-08T00:14:10.281Z,0.9
2018-02-08T00:15:12.825Z,0.9
2018-02-08T00:16:15.336Z,1
2018-02-08T00:17:17.801Z,0.8
2018-02-08T00:18:20.331Z,1
2018-02-08T00:19:22.919Z,1
2018-02-08T00:20:25.434Z,0.9
2018-02-08T00:21:27.940Z,0.9
2018-02-08T00:22:30.469Z,0.9
2018-02-08T00:23:32.958Z,0.8
2018-02-08T00:24:35.466Z,0.7
2018-02-08T00:25:37.942Z,0.6
2018-02-08T00:26:40.485Z,0.8
2018-02-08T00:27:43.027Z,0.8
2018-02-08T00:28:45.536Z,0.7
2018-02-08T00:29:48.038Z,0.6
2018-02-08T00:30:50.527Z,0.6
2018-02-08T00:31:52.980Z,0.7
2018-02-08T00:32:55.485Z,0.6
2018-02-08T00:33:58.007Z,0.7
2018-02-08T00:35:00.564Z,0.6
2018-02-08T00:36:03.104Z,0.6
2018-02-08T00:37:05.542Z,0.4
2018-02-08T00:38:07.989Z,0.4
2018-02-08T00:39:10.527Z,0.6
2018-02-08T00:40:13.025Z,0.6
2018-02-08T00:41:15.504Z,0.5
2018-02-08T00:42:18.023Z,0.5
2018-02-08T00:43:20.707Z,0.4
2018-02-08T00:44:23.210Z,0.3
2018-02-08T00:45:25.705Z,0.6
2018-02-08T00:46:28.213Z,0.6
2018-02-08T00:47:30.781Z,0.7
2018-02-08T00:48:33.317Z,0.5
2018-02-08T00:49:35.799Z,0.4
2018-02-08T00:50:38.358Z,0.4
2018-02-08T00:51:40.871Z,0.3
2018-02-08T00:52:43.348Z,0.3
2018-02-08T00:53:45.855Z,0.2
2018-02-08T00:54:48.434Z,0.2
2018-02-08T00:55:50.929Z,0.2
2018-02-08T00:56:53.394Z,0.3
2018-02-08T00:57:55.904Z,0.2
2018-02-08T00:58:58.489Z,0.3
2018-02-08T01:00:01.087Z,0.3
2018-02-08T01:01:03.586Z,0.2
2018-02-08T01:02:06.070Z,0.2
2018-02-08T01:03:08.593Z,0.1
2018-02-08T01:04:11.101Z,-0.1
2018-02-08T01:05:13.581Z,0.1
2018-02-08T01:06:16.058Z,0
2018-02-08T01:07:18.555Z,0.1
2018-02-08T01:08:21.083Z,0.1
2018-02-08T01:09:23.619Z,0.1
2018-02-08T01:10:26.080Z,0.1
2018-02-08T01:11:28.569Z,0.1
2018-02-08T01:12:32.681Z,0
2018-02-08T01:13:35.200Z,-0.2
2018-02-08T01:14:37.720Z,-0.1
2018-02-08T01:15:40.215Z,-0.1
2018-02-08T01:16:42.764Z,-0.1
2018-02-08T01:17:45.248Z,0.2
2018-02-08T01:18:47.733Z,-0.1
2018-02-08T01:19:50.214Z,0.1
2018-02-08T01:20:52.707Z,-0.1
2018-02-08T01:21:55.185Z,-0.2
2018-02-08T01:22:57.700Z,-0.2
2018-02-08T01:24:00.165Z,-0.2
2018-02-08T01:25:02.644Z,-0.1
2018-02-08T01:26:05.122Z,0
2018-02-08T01:27:07.641Z,-0.1
2018-02-08T01:28:10.666Z,0
2018-02-08T01:29:13.202Z,-0.1
2018-02-08T01:30:15.732Z,-0.2
2018-02-08T01:31:22.379Z,-0.1
2018-02-08T01:32:24.982Z,-0.2
2018-02-08T01:33:27.611Z,-0.3
2018-02-08T01:34:30.172Z,-0.4
2018-02-08T01:35:32.670Z,-0.3
2018-02-08T01:36:35.171Z,-0.3
2018-02-08T01:37:37.693Z,-0.2
2018-02-08T01:38:40.187Z,-0.2
2018-02-08T01:39:42.662Z,-0.3
2018-02-08T01:40:45.105Z,-0.3
2018-02-08T01:41:47.556Z,-0.3
2018-02-08T01:42:50.024Z,-0.3
2018-02-08T01:43:52.597Z,-0.3
2018-02-08T01:44:55.081Z,-0.2
2018-02-08T01:45:57.612Z,-0.3
2018-02-08T01:47:00.245Z,-0.3
2018-02-08T01:48:06.556Z,-0.4
2018-02-08T01:49:09.152Z,-0.4
2018-02-08T01:50:11.708Z,-0.3
2018-02-08T01:51:14.300Z,-0.4
2018-02-08T01:52:16.837Z,-0.6
2018-02-08T01:53:19.371Z,-0.6
2018-02-08T01:54:21.857Z,-0.5
2018-02-08T01:55:24.338Z,-0.5
2018-02-08T01:56:26.827Z,-0.5
2018-02-08T01:57:29.315Z,-0.5
2018-02-08T01:58:31.838Z,-0.4
2018-02-08T01:59:34.370Z,-0.4
2018-02-08T02:00:36.961Z,-0.3
2018-02-08T02:01:39.509Z,-0.4
2018-02-08T02:02:41.977Z,-0.6
2018-02-08T02:03:44.510Z,-0.4
2018-02-08T02:04:47.017Z,-0.6
2018-02-08T02:05:49.483Z,-0.6
2018-02-08T02:06:52.053Z,-0.6
2018-02-08T02:07:54.562Z,-0.5
2018-02-08T02:08:57.030Z,-0.5
2018-02-08T02:09:59.569Z,-0.5
2018-02-08T02:11:02.205Z,-0.5
2018-02-08T02:12:04.677Z,-0.6
2018-02-08T02:13:07.183Z,-0.5
2018-02-08T02:14:09.662Z,-0.6
2018-02-08T02:15:12.215Z,-0.6
2018-02-08T02:16:14.713Z,-0.6
2018-02-08T02:17:19.153Z,-0.7
2018-02-08T02:18:24.161Z,-0.8
2018-02-08T02:19:26.672Z,-0.8
2018-02-08T02:20:29.184Z,-0.7
2018-02-08T02:21:31.701Z,-0.6
2018-02-08T02:22:34.216Z,-0.6
2018-02-08T02:23:36.770Z,-0.4
2018-02-08T02:24:39.278Z,-0.5
2018-02-08T02:25:41.809Z,-0.6
2018-02-08T02:26:44.329Z,-0.4
2018-02-08T02:27:46.818Z,-0.5
2018-02-08T02:28:49.307Z,-0.6
2018-02-08T02:29:51.920Z,-0.6
2018-02-08T02:30:54.420Z,-0.6
2018-02-08T02:31:56.936Z,-0.7
2018-02-08T02:32:59.490Z,-0.6
2018-02-08T02:34:02.031Z,-0.6
2018-02-08T02:35:04.569Z,-0.7
2018-02-08T02:36:07.077Z,-0.9
2018-02-08T02:37:09.556Z,-0.8
2018-02-08T02:38:12.091Z,-0.7
2018-02-08T02:39:14.626Z,-0.6
2018-02-08T02:40:17.140Z,-0.5
2018-02-08T02:41:19.583Z,-0.3
2018-02-08T02:42:22.146Z,-0.6
2018-02-08T02:43:24.641Z,-0.4
2018-02-08T02:44:27.172Z,-0.4
2018-02-08T02:45:29.663Z,-0.6
2018-02-08T02:46:32.152Z,-0.5
2018-02-08T02:47:34.642Z,-0.5
2018-02-08T02:48:37.375Z,-0.6
2018-02-08T02:49:39.879Z,-0.8
2018-02-08T02:50:42.457Z,-0.6
2018-02-08T02:51:44.976Z,-0.6
2018-02-08T02:52:47.508Z,-0.7
2018-02-08T02:53:49.969Z,-0.6
2018-02-08T02:54:52.478Z,-0.7
2018-02-08T02:55:54.985Z,-0.6
2018-02-08T02:56:57.489Z,-0.6
2018-02-08T02:58:00.040Z,-0.6
2018-02-08T02:59:02.698Z,-0.6
2018-02-08T03:00:05.254Z,-0.5
2018-02-08T03:01:07.845Z,-0.7
2018-02-08T03:02:10.430Z,-0.7
2018-02-08T03:03:12.966Z,-0.6
2018-02-08T03:04:15.503Z,-0.6
2018-02-08T03:05:18.023Z,-0.6
2018-02-08T03:06:24.409Z,-0.7
2018-02-08T03:07:26.963Z,-0.8
2018-02-08T03:08:29.499Z,-0.7
2018-02-08T03:09:32.067Z,-0.8
2018-02-08T03:10:34.571Z,-0.7
2018-02-08T03:11:37.091Z,-0.6
2018-02-08T03:12:39.593Z,-0.8
2018-02-08T03:13:42.312Z,-0.8
2018-02-08T03:14:45.004Z,-0.8
2018-02-08T03:15:47.526Z,-0.8
2018-02-08T03:16:50.066Z,-0.9
2018-02-08T03:17:52.618Z,-1
2018-02-08T03:18:55.067Z,-0.9
2018-02-08T03:19:57.600Z,-1
2018-02-08T03:21:00.066Z,-0.8
2018-02-08T03:22:02.685Z,-0.8
2018-02-08T03:23:05.149Z,-1.1
2018-02-08T03:24:07.622Z,-0.9
2018-02-08T03:25:10.131Z,-0.9
2018-02-08T03:26:12.644Z,-0.9
2018-02-08T03:27:15.137Z,-1
2018-02-08T03:28:17.603Z,-0.8
2018-02-08T03:29:20.132Z,-1
2018-02-08T03:30:22.637Z,-0.7
2018-02-08T03:31:26.164Z,-1
2018-02-08T03:32:28.660Z,-1
2018-02-08T03:33:31.224Z,-1.1
2018-02-08T03:34:33.702Z,-1.1
2018-02-08T03:35:36.236Z,-1
2018-02-08T03:36:38.732Z,-1
2018-02-08T03:37:41.271Z,-1
2018-02-08T03:38:44.433Z,-1
2018-02-08T03:39:53.553Z,-1
2018-02-08T03:40:56.068Z,-1
2018-02-08T03:41:58.559Z,-1
2018-02-08T03:43:01.225Z,-1.2
2018-02-08T03:44:03.776Z,-1.2
2018-02-08T03:45:06.280Z,-1.2
2018-02-08T03:46:08.745Z,-1.2
2018-02-08T03:47:11.326Z,-1
2018-02-08T03:48:13.819Z,-0.8
2018-02-08T03:49:16.356Z,-1
2018-02-08T03:50:18.867Z,-1.3
2018-02-08T03:51:21.684Z,-1.3
2018-02-08T03:52:24.163Z,-1.4
2018-02-08T03:53:26.672Z,-1.5
2018-02-08T03:54:29.137Z,-1.3
2018-02-08T03:55:31.662Z,-1.2
2018-02-08T03:56:34.157Z,-1.2
2018-02-08T03:57:36.693Z,-1.1
2018-02-08T03:58:42.694Z,-1.2
2018-02-08T03:59:45.270Z,-1.1
2018-02-08T04:00:47.773Z,-1.3
2018-02-08T04:01:50.334Z,-1.1
2018-02-08T04:02:52.884Z,-1.2
2018-02-08T04:03:55.336Z,-1.2
2018-02-08T04:04:57.811Z,-1.2
2018-02-08T04:06:00.289Z,-1.2
2018-02-08T04:07:02.922Z,-1.2
2018-02-08T04:08:05.386Z,-1.2
2018-02-08T04:09:07.891Z,-1.3
2018-02-08T04:10:10.372Z,-1.3
2018-02-08T04:11:12.923Z,-1.2
2018-02-08T04:12:15.410Z,-1.3
2018-02-08T04:13:21.767Z,-1.3
2018-02-08T04:14:24.308Z,-1.3
2018-02-08T04:15:26.811Z,-1.3
2018-02-08T04:16:29.284Z,-1.4
2018-02-08T04:17:31.807Z,-1.5
2018-02-08T04:18:34.338Z,-1.2
2018-02-08T04:19:36.834Z,-1.5
2018-02-08T04:20:39.316Z,-1.4
2018-02-08T04:21:41.911Z,-1.3
2018-02-08T04:22:44.513Z,-1.4
2018-02-08T04:23:47.047Z,-1
2018-02-08T04:24:49.640Z,1.4
2018-02-08T04:25:52.130Z,3
2018-02-08T04:26:54.606Z,4.3
2018-02-08T04:27:57.163Z,4.9
2018-02-08T04:28:59.679Z,5.1
2018-02-08T04:30:03.981Z,5.3
2018-02-08T04:31:06.538Z,5.4
2018-02-08T04:32:09.109Z,5.6
2018-02-08T04:33:11.670Z,5.8
2018-02-08T04:34:14.146Z,6.2
2018-02-08T04:35:16.653Z,6.5
2018-02-08T04:36:19.161Z,6.8
2018-02-08T04:37:21.745Z,7
2018-02-08T04:38:24.399Z,7.2
2018-02-08T04:39:26.950Z,7.3
2018-02-08T04:40:29.492Z,7.3
2018-02-08T04:41:32.119Z,7.3
2018-02-08T04:42:34.592Z,7.5
2018-02-08T04:43:37.097Z,7.6
2018-02-08T04:44:39.581Z,7.7
2018-02-08T04:45:43.920Z,7.6
2018-02-08T04:46:46.491Z,7.7
2018-02-08T04:47:49.000Z,7.7
2018-02-08T04:48:51.546Z,7.7
2018-02-08T04:49:54.057Z,7.7
2018-02-08T04:50:56.588Z,7.6
2018-02-08T04:51:59.068Z,7.4
2018-02-08T04:53:01.639Z,7.7
2018-02-08T04:54:04.192Z,7.8
2018-02-08T04:55:06.775Z,7.8
2018-02-08T04:56:09.274Z,7.7
2018-02-08T04:57:11.856Z,7.7
2018-02-08T04:58:14.320Z,7.8
2018-02-08T04:59:16.801Z,7.9
2018-02-08T05:00:19.370Z,7.8
2018-02-08T05:01:21.939Z,7.8
2018-02-08T05:02:24.540Z,7.9
2018-02-08T05:03:27.048Z,8.4
2018-02-08T05:04:29.546Z,8.4
2018-02-08T05:05:32.062Z,8.4
2018-02-08T05:06:34.607Z,8.4
2018-02-08T05:07:37.211Z,8.1
2018-02-08T05:08:39.794Z,8.3
2018-02-08T05:09:42.308Z,8
2018-02-08T05:10:44.827Z,8.1
2018-02-08T05:11:47.366Z,8.1
2018-02-08T05:12:49.950Z,8.1
2018-02-08T05:13:52.486Z,8.2
2018-02-08T05:14:54.975Z,8.4
2018-02-08T05:15:57.452Z,8.5
2018-02-08T05:17:00.148Z,8.3
2018-02-08T05:18:02.746Z,8.4
2018-02-08T05:19:05.266Z,8.3
2018-02-08T05:20:07.793Z,8.3
2018-02-08T05:21:10.315Z,8.3
2018-02-08T05:22:12.870Z,8.3
2018-02-08T05:23:15.444Z,8.3
2018-02-08T05:24:17.956Z,8.3
2018-02-08T05:25:20.518Z,8.3
2018-02-08T05:26:23.059Z,8.3
2018-02-08T05:27:26.533Z,8.4
2018-02-08T05:28:29.043Z,8.4
2018-02-08T05:29:31.577Z,8.5
2018-02-08T05:30:34.164Z,8.5
2018-02-08T05:31:36.716Z,8.3
2018-02-08T05:32:39.304Z,8.4
2018-02-08T05:33:41.874Z,8.4
2018-02-08T05:34:44.392Z,8.4
2018-02-08T05:35:46.899Z,8.4
2018-02-08T05:36:49.423Z,8.4
2018-02-08T05:37:52.031Z,8.5
2018-02-08T05:38:54.530Z,8.4
2018-02-08T05:39:57.033Z,8.5
2018-02-08T05:40:59.532Z,8.5
2018-02-08T05:42:02.204Z,8.5
2018-02-08T05:43:04.716Z,8.5
2018-02-08T05:44:07.282Z,8.6
2018-02-08T05:45:09.800Z,8.6
2018-02-08T05:46:12.491Z,8.6
2018-02-08T05:47:15.068Z,8.7
2018-02-08T05:48:17.629Z,8.7
2018-02-08T05:49:20.172Z,8.7
2018-02-08T05:50:22.769Z,8.7
2018-02-08T05:51:25.360Z,8.8
2018-02-08T05:52:27.897Z,8.8
2018-02-08T05:53:30.407Z,8.7
2018-02-08T05:54:33.006Z,8.8
2018-02-08T05:55:35.537Z,8.8
2018-02-08T05:56:38.112Z,8.9
2018-02-08T05:57:40.626Z,8.9
2018-02-08T05:58:43.240Z,8.9
2018-02-08T05:59:45.816Z,8.9
2018-02-08T06:00:48.329Z,8.9
2018-02-08T06:01:50.861Z,8.9
2018-02-08T06:02:53.539Z,9
2018-02-08T06:03:56.074Z,9
2018-02-08T06:04:58.676Z,9
2018-02-08T06:06:01.204Z,9
2018-02-08T06:07:03.811Z,9
2018-02-08T06:08:06.454Z,9.1
2018-02-08T06:09:09.066Z,8.9
2018-02-08T06:10:11.727Z,9
2018-02-08T06:11:18.765Z,9.2
2018-02-08T06:12:22.093Z,9
2018-02-08T06:13:29.368Z,9
2018-02-08T06:14:32.031Z,9.2
2018-02-08T06:15:34.611Z,9.3
2018-02-08T06:16:39.415Z,9.2
2018-02-08T06:17:43.889Z,9.3
2018-02-08T06:18:46.424Z,9.2
2018-02-08T06:19:48.970Z,9.1
2018-02-08T06:20:51.585Z,9.2
2018-02-08T06:21:54.212Z,9.3
2018-02-08T06:22:56.883Z,9.3
2018-02-08T06:23:59.412Z,9.3
2018-02-08T06:25:02.069Z,9.3
2018-02-08T06:26:04.666Z,9.3
2018-02-08T06:27:07.210Z,9.4
2018-02-08T06:28:10.685Z,9.4
2018-02-08T06:29:13.373Z,9.3
2018-02-08T06:30:16.037Z,9.4
2018-02-08T06:31:22.900Z,9.5
2018-02-08T06:32:25.659Z,9.5
2018-02-08T06:33:28.253Z,9.6
2018-02-08T06:34:30.785Z,9.5
2018-02-08T06:35:33.354Z,9.5
2018-02-08T06:36:35.873Z,9.6
2018-02-08T06:37:38.491Z,9.5
2018-02-08T06:38:41.054Z,9.6
2018-02-08T06:39:43.612Z,9.6
2018-02-08T06:40:46.187Z,9.6
2018-02-08T06:41:48.683Z,9.6
2018-02-08T06:42:51.227Z,9.6
2018-02-08T06:43:53.840Z,9.6
2018-02-08T06:44:56.407Z,9.7
2018-02-08T06:45:58.987Z,9.7
2018-02-08T06:47:01.473Z,9.7
2018-02-08T06:48:04.007Z,9.7
2018-02-08T06:49:06.882Z,9.7
2018-02-08T06:50:09.414Z,9.7
2018-02-08T06:51:12.005Z,9.8
2018-02-08T06:52:14.588Z,9.8
2018-02-08T06:53:17.116Z,9.8
2018-02-08T06:54:19.688Z,9.8
2018-02-08T06:55:22.381Z,9.8
2018-02-08T06:56:24.909Z,9.7
2018-02-08T06:57:27.541Z,9.9
2018-02-08T06:58:30.106Z,9.9
2018-02-08T06:59:32.852Z,9.8
2018-02-08T07:00:35.425Z,9.9
2018-02-08T07:01:37.973Z,9.8
2018-02-08T07:02:40.696Z,9.8
2018-02-08T07:03:43.336Z,9.8
2018-02-08T07:04:45.962Z,9.9
2018-02-08T07:05:48.546Z,9.9
2018-02-08T07:06:51.071Z,9.9
2018-02-08T07:07:53.715Z,10
2018-02-08T07:08:57.381Z,10
2018-02-08T07:10:00.040Z,10
2018-02-08T07:11:02.845Z,9.9
2018-02-08T07:12:05.745Z,10.1
2018-02-08T07:13:08.524Z,10.4
2018-02-08T07:14:11.132Z,10.7
2018-02-08T07:15:13.888Z,10.8
2018-02-08T07:16:16.563Z,10.9
2018-02-08T07:17:19.136Z,10.9
2018-02-08T07:18:21.691Z,11
2018-02-08T07:19:24.425Z,11.1
2018-02-08T07:20:27.631Z,11.2
2018-02-08T07:21:30.288Z,11.2
2018-02-08T07:22:32.986Z,11.1
2018-02-08T07:23:35.562Z,11.1
2018-02-08T07:24:38.143Z,11.2
2018-02-08T07:25:40.865Z,11.2
2018-02-08T07:26:43.570Z,11.3
2018-02-08T07:27:46.190Z,11.6
2018-02-08T07:28:48.833Z,11.8
2018-02-08T07:29:51.393Z,11.8
2018-02-08T07:30:54.031Z,11.7
2018-02-08T07:31:56.593Z,11.7
2018-02-08T07:32:59.185Z,11.8
2018-02-08T07:34:01.821Z,11.8
2018-02-08T07:35:04.335Z,11.7
2018-02-08T07:36:07.092Z,11.7
2018-02-08T07:37:11.060Z,11.7
2018-02-08T07:38:13.641Z,11.7
2018-02-08T07:39:16.182Z,11.8
2018-02-08T07:40:18.746Z,11.9
2018-02-08T07:41:21.481Z,12
2018-02-08T07:42:24.140Z,12.2
2018-02-08T07:43:26.742Z,12.2
2018-02-08T07:44:29.452Z,12.2
2018-02-08T07:45:32.166Z,12.5
2018-02-08T07:46:34.866Z,12.6
2018-02-08T07:47:37.494Z,12.6
2018-02-08T07:48:40.169Z,12.7
2018-02-08T07:49:42.870Z,12.6
2018-02-08T07:50:45.726Z,12.7
2018-02-08T07:51:48.380Z,12.8
2018-02-08T07:52:52.010Z,12.8
2018-02-08T07:53:54.674Z,13
2018-02-08T07:54:57.251Z,13.1
2018-02-08T07:55:59.869Z,13.1
2018-02-08T07:57:02.981Z,13.4
2018-02-08T07:58:05.611Z,13.5
2018-02-08T07:59:08.281Z,13.6
2018-02-08T08:00:11.996Z,13.6
2018-02-08T08:01:14.958Z,13.7
2018-02-08T08:02:18.000Z,13.8
2018-02-08T08:03:20.713Z,13.8
2018-02-08T08:04:23.907Z,14
2018-02-08T08:05:26.500Z,14.1
2018-02-08T08:06:28.992Z,14.3
2018-02-08T08:07:31.556Z,14.3
2018-02-08T08:08:34.359Z,14.4
2018-02-08T08:09:36.975Z,14.3
2018-02-08T08:10:39.563Z,14.3
2018-02-08T08:11:42.316Z,14.3
2018-02-08T08:12:52.616Z,14.3
2018-02-08T08:13:55.381Z,14.4
2018-02-08T08:14:57.957Z,14.5
2018-02-08T08:16:00.543Z,14.6
2018-02-08T08:17:03.158Z,14.5
2018-02-08T08:18:05.742Z,14.6
2018-02-08T08:19:08.531Z,14.6
2018-02-08T08:20:11.239Z,14.8
2018-02-08T08:21:13.981Z,14.7
2018-02-08T08:22:16.569Z,14.7
2018-02-08T08:23:19.189Z,14.7
2018-02-08T08:24:21.709Z,14.8
2018-02-08T08:25:24.442Z,14.9
2018-02-08T08:26:27.186Z,14.9
2018-02-08T08:27:29.802Z,15.1
2018-02-08T08:28:32.452Z,15.3
2018-02-08T08:29:35.089Z,15.3
2018-02-08T08:30:37.699Z,15.3
2018-02-08T08:32:48.871Z,15.4
2018-02-08T08:33:51.615Z,15.4
2018-02-08T08:34:54.293Z,15.4
2018-02-08T08:35:56.823Z,15.3
2018-02-08T08:37:05.369Z,15.4
2018-02-08T08:38:07.940Z,15.3
2018-02-08T08:39:10.549Z,15
2018-02-08T08:40:13.197Z,15.1
2018-02-08T08:41:15.755Z,14.9
2018-02-08T08:42:18.711Z,15.1
2018-02-08T08:43:22.913Z,14.9
2018-02-08T08:44:25.485Z,14.9
2018-02-08T08:45:28.140Z,14.9
2018-02-08T08:46:30.690Z,14.9
2018-02-08T08:47:33.217Z,14.8
2018-02-08T08:48:35.794Z,14.8
2018-02-08T08:49:38.508Z,14.7
2018-02-08T08:50:40.993Z,14.7
2018-02-08T08:51:43.478Z,14.7
2018-02-08T08:52:45.921Z,14.6
2018-02-08T08:53:48.350Z,14.6
2018-02-08T08:54:50.894Z,14.5
2018-02-08T08:55:53.411Z,14.4
2018-02-08T08:56:55.913Z,14.3
2018-02-08T08:57:58.381Z,14.3
2018-02-08T08:59:00.882Z,14.2
2018-02-08T09:00:03.447Z,14.2
2018-02-08T09:01:05.946Z,14
2018-02-08T09:02:08.465Z,13.8
2018-02-08T09:03:10.909Z,13.8
2018-02-08T09:04:20.841Z,14
2018-02-08T09:05:23.416Z,14
2018-02-08T09:06:25.875Z,14.1
2018-02-08T09:07:28.863Z,14.1
2018-02-08T09:08:31.397Z,14.1
2018-02-08T09:09:33.896Z,14.1
2018-02-08T09:10:36.440Z,14.2
2018-02-08T09:11:38.934Z,14.1
2018-02-08T09:12:41.470Z,14.2
2018-02-08T09:13:43.966Z,14.2
2018-02-08T09:14:46.401Z,14.2
2018-02-08T09:15:48.827Z,14.2
2018-02-08T09:16:51.289Z,14.2
2018-02-08T09:17:53.866Z,14.2
2018-02-08T09:18:56.402Z,14.1
2018-02-08T09:19:58.860Z,14.3
2018-02-08T09:21:01.392Z,14.2
2018-02-08T09:22:03.917Z,14.4
2018-02-08T09:23:06.451Z,14.3
2018-02-08T09:24:08.918Z,14.2
2018-02-08T09:25:11.367Z,14.2
2018-02-08T09:26:13.995Z,14.2
2018-02-08T09:27:16.569Z,14.2
2018-02-08T09:28:20.019Z,14.3
2018-02-08T09:29:23.499Z,14.3
2018-02-08T09:30:26.182Z,14.3
2018-02-08T09:31:29.096Z,14.4
2018-02-08T09:32:31.744Z,14.3
2018-02-08T09:33:35.366Z,14.4
2018-02-08T09:34:38.111Z,14.4
2018-02-08T09:35:43.493Z,14.3
2018-02-08T09:36:46.646Z,14.3
2018-02-08T09:37:49.752Z,14.4
2018-02-08T09:38:52.503Z,14.4
2018-02-08T09:39:55.004Z,14.4
2018-02-08T09:40:57.440Z,14.5
2018-02-08T09:41:59.996Z,14.3
2018-02-08T09:43:02.493Z,14.4
2018-02-08T09:44:05.161Z,14.4
2018-02-08T09:45:07.660Z,14.5
2018-02-08T09:46:10.146Z,14.6
2018-02-08T09:47:14.206Z,14.6
2018-02-08T09:48:16.807Z,14.6
